CLI weather

Clintonville Municipal Airport
Clintonville, Wisconsin, United States

Public forecast

Using degrees Fahrenheit for public forecast. Weather courtesy of forecast.io.

METAR (pilot weather report)

Retrieved 2019/08/17 23:35 UTC (16 minutes ago):

KCLI 172335Z AUTO 17007KT 10SM CLR 26/15 A2984 RMK AO2 T02570150

TAF (pilot weather forecast)

Closest forecast is Appleton International Airport, 23.2 nm (43.0 km) SSE. Retrieved 2019/08/17 18:22 UTC (5 hours ago):

TAF KATW 171720Z 1718/1818 18006KT P6SM SCT040 FM180100 16004KT P6SM BKN250 FM180700 16005KT 5SM BR BKN110 FM181000 16008KT 4SM BR VCSH BKN050 WS014/18030KT TEMPO 1811/1815 3SM -TSRA BR BKN014CB FM181500 19011G18KT 4SM -SHRA BKN006